createdAt,value
2023-04-23T00:00:20.261Z,7.50
2023-04-23T00:02:55.024Z,7.05
2023-04-23T00:05:29.599Z,6.88
2023-04-23T00:08:02.873Z,6.57
2023-04-23T00:10:33.667Z,6.95
2023-04-23T00:13:04.316Z,6.18
2023-04-23T00:15:35.931Z,6.20
2023-04-23T00:18:06.627Z,6.65
2023-04-23T00:20:37.889Z,6.63
2023-04-23T00:23:08.149Z,7.03
2023-04-23T00:25:38.809Z,6.43
2023-04-23T00:28:09.175Z,5.60
2023-04-23T00:30:39.551Z,5.47
2023-04-23T00:33:09.817Z,5.22
2023-04-23T00:35:40.818Z,4.53
2023-04-23T00:38:26.117Z,4.75
2023-04-23T00:40:56.388Z,5.30
2023-04-23T00:43:26.925Z,4.70
2023-04-23T00:45:57.818Z,4.05
2023-04-23T00:48:28.683Z,4.40
2023-04-23T00:51:13.543Z,4.35
2023-04-23T00:53:44.210Z,4.25
2023-04-23T00:56:15.265Z,4.15
2023-04-23T00:58:47.078Z,4.30
2023-04-23T01:01:20.401Z,3.90
2023-04-23T01:03:56.101Z,4.60
2023-04-23T01:06:30.430Z,4.83
2023-04-23T01:09:01.095Z,3.83
2023-04-23T01:11:31.775Z,4.10
2023-04-23T01:14:02.826Z,4.00
2023-04-23T01:16:33.217Z,3.85
2023-04-23T01:19:04.942Z,3.17
2023-04-23T01:21:37.262Z,3.97
2023-04-23T01:24:08.343Z,4.00
2023-04-23T01:26:39.043Z,3.33
2023-04-23T01:29:10.091Z,3.65
2023-04-23T01:31:41.303Z,4.03
2023-04-23T01:34:12.153Z,3.75
2023-04-23T01:36:44.303Z,3.45
2023-04-23T01:39:15.035Z,2.65
2023-04-23T01:41:46.122Z,3.17
2023-04-23T01:44:16.810Z,2.92
2023-04-23T01:46:47.489Z,3.30
2023-04-23T01:49:17.890Z,2.63
2023-04-23T01:51:48.239Z,2.00
2023-04-23T01:54:18.553Z,2.40
2023-04-23T01:56:48.914Z,2.40
2023-04-23T01:59:19.401Z,1.75
2023-04-23T02:01:51.008Z,1.50
2023-04-23T02:04:22.785Z,1.67
2023-04-23T02:06:55.008Z,1.75
2023-04-23T02:09:25.644Z,2.78
2023-04-23T02:11:58.084Z,3.13
2023-04-23T02:14:28.819Z,2.60
2023-04-23T02:16:59.651Z,2.72
2023-04-23T02:19:29.945Z,2.53
2023-04-23T02:22:00.328Z,2.30
2023-04-23T02:24:30.925Z,2.22
2023-04-23T02:27:01.134Z,2.72
2023-04-23T02:29:31.415Z,2.17
2023-04-23T02:32:01.698Z,1.90
2023-04-23T02:34:31.945Z,1.42
2023-04-23T02:37:02.660Z,1.10
2023-04-23T02:39:33.723Z,1.10
2023-04-23T02:42:04.389Z,1.10
2023-04-23T02:44:35.002Z,1.05
2023-04-23T02:47:05.531Z,0.90
2023-04-23T02:49:35.787Z,1.00
2023-04-23T02:52:07.373Z,0.90
2023-04-23T02:54:40.255Z,0.80
2023-04-23T02:57:11.113Z,0.88
2023-04-23T02:59:42.374Z,0.93
2023-04-23T03:02:13.536Z,0.70
2023-04-23T03:04:44.614Z,0.80
2023-04-23T03:07:15.870Z,0.88
2023-04-23T03:09:46.613Z,0.70
2023-04-23T03:12:16.847Z,0.90
2023-04-23T03:14:48.909Z,0.60
2023-04-23T03:17:20.286Z,1.05
2023-04-23T03:19:51.871Z,0.98
2023-04-23T03:22:22.608Z,0.93
2023-04-23T03:24:53.293Z,0.75
2023-04-23T03:27:23.994Z,0.68
2023-04-23T03:29:55.907Z,1.00
2023-04-23T03:32:29.091Z,0.73
2023-04-23T03:34:59.728Z,0.70
2023-04-23T03:37:30.546Z,1.58
2023-04-23T03:40:01.278Z,0.80
2023-04-23T03:42:32.271Z,0.88
2023-04-23T03:45:03.729Z,1.00
2023-04-23T03:47:34.454Z,0.73
2023-04-23T03:50:05.223Z,0.77
2023-04-23T03:52:35.582Z,0.70
2023-04-23T03:55:05.858Z,1.00
2023-04-23T03:57:36.833Z,0.77
2023-04-23T04:00:11.668Z,1.20
2023-04-23T04:02:42.893Z,0.98
2023-04-23T04:05:13.614Z,0.80
2023-04-23T04:07:44.389Z,1.13
2023-04-23T04:10:14.897Z,0.90
2023-04-23T04:12:47.211Z,0.88
2023-04-23T04:15:21.488Z,1.08
2023-04-23T04:17:51.886Z,0.82
2023-04-23T04:20:22.220Z,0.98
2023-04-23T04:22:52.531Z,1.08
2023-04-23T04:25:24.235Z,1.02
2023-04-23T04:27:54.554Z,1.48
2023-04-23T04:30:24.863Z,1.02
2023-04-23T04:32:55.534Z,1.10
2023-04-23T04:35:25.900Z,1.25
2023-04-23T04:37:56.592Z,1.33
2023-04-23T04:40:28.206Z,1.60
2023-04-23T04:42:59.392Z,1.30
2023-04-23T04:45:29.605Z,1.15
2023-04-23T04:47:59.878Z,1.10
2023-04-23T04:50:31.341Z,1.15
2023-04-23T04:53:01.612Z,1.08
2023-04-23T04:55:32.269Z,1.15
2023-04-23T04:58:02.855Z,1.40
2023-04-23T05:00:33.412Z,1.30
2023-04-23T05:03:04.433Z,1.15
2023-04-23T05:05:36.490Z,1.40
2023-04-23T05:08:07.038Z,1.30
2023-04-23T05:10:37.295Z,1.38
2023-04-23T05:13:07.823Z,1.30
2023-04-23T05:15:38.017Z,1.17
2023-04-23T05:18:09.979Z,1.85
2023-04-23T05:20:40.780Z,1.30
2023-04-23T05:23:11.147Z,1.30
2023-04-23T05:25:41.409Z,1.27
2023-04-23T05:28:12.567Z,1.45
2023-04-23T05:30:44.586Z,1.42
2023-04-23T05:33:15.323Z,1.17
2023-04-23T05:35:46.898Z,1.23
2023-04-23T05:41:00.813Z,1.55
2023-04-23T05:43:31.575Z,1.50
2023-04-23T05:46:01.812Z,1.83
2023-04-23T05:48:33.628Z,1.33
2023-04-23T05:51:04.414Z,1.40
2023-04-23T05:53:35.622Z,2.10
2023-04-23T05:56:06.559Z,1.40
2023-04-23T05:58:37.612Z,1.73
2023-04-23T06:01:08.163Z,1.63
2023-04-23T06:03:39.298Z,1.98
2023-04-23T06:06:11.810Z,1.88
2023-04-23T06:08:42.541Z,1.85
2023-04-23T06:11:15.917Z,1.77
2023-04-23T06:13:46.394Z,2.00
2023-04-23T06:16:17.007Z,1.75
2023-04-23T06:18:47.940Z,1.67
2023-04-23T06:21:19.361Z,2.25
2023-04-23T06:23:51.243Z,2.28
2023-04-23T06:26:22.225Z,2.17
2023-04-23T06:28:53.390Z,2.25
2023-04-23T06:31:24.031Z,2.03
2023-04-23T06:33:55.043Z,2.17
2023-04-23T06:36:25.879Z,2.70
2023-04-23T06:38:56.810Z,2.80
2023-04-23T06:41:27.317Z,2.25
2023-04-23T06:43:57.983Z,3.47
2023-04-23T06:46:28.695Z,2.80
2023-04-23T06:48:59.478Z,2.70
2023-04-23T06:51:31.261Z,3.70
2023-04-23T06:54:03.344Z,3.45
2023-04-23T06:56:34.028Z,3.65
2023-04-23T06:59:04.701Z,2.88
2023-04-23T07:01:36.236Z,2.97
2023-04-23T07:04:06.895Z,3.75
2023-04-23T07:06:38.566Z,3.75
2023-04-23T07:09:10.356Z,3.28
2023-04-23T07:11:40.958Z,3.42
2023-04-23T07:14:11.914Z,3.85
2023-04-23T07:16:42.682Z,3.35
2023-04-23T07:19:13.464Z,3.70
2023-04-23T07:21:44.219Z,3.40
2023-04-23T07:24:14.531Z,3.67
2023-04-23T07:26:45.282Z,4.45
2023-04-23T07:29:17.725Z,3.70
2023-04-23T07:31:48.583Z,4.22
2023-04-23T07:35:03.539Z,4.25
2023-04-23T07:41:46.386Z,4.50
2023-04-23T07:44:17.797Z,3.70
2023-04-23T07:46:49.941Z,3.63
2023-04-23T07:49:22.252Z,4.15
2023-04-23T07:51:53.325Z,4.00
2023-04-23T07:54:25.221Z,4.47
2023-04-23T07:56:57.514Z,4.38
2023-04-23T07:59:28.014Z,3.97
2023-04-23T08:01:58.787Z,4.30
2023-04-23T08:04:30.060Z,3.80
2023-04-23T08:07:02.665Z,4.78
2023-04-23T08:09:34.590Z,4.60
2023-04-23T08:12:05.348Z,5.13
2023-04-23T08:14:36.031Z,4.82
2023-04-23T08:17:06.697Z,6.05
2023-04-23T08:19:37.362Z,7.10
2023-04-23T08:22:08.074Z,5.18
2023-04-23T08:24:38.856Z,5.38
2023-04-23T08:27:10.423Z,5.13
2023-04-23T08:29:41.525Z,5.78
2023-04-23T08:32:12.262Z,5.53
2023-04-23T08:34:43.318Z,5.63
2023-04-23T08:37:23.200Z,6.28
2023-04-23T08:40:01.414Z,6.35
2023-04-23T08:42:58.736Z,6.18
2023-04-23T08:45:29.846Z,6.07
2023-04-23T08:48:04.972Z,6.90
2023-04-23T08:50:36.608Z,6.32
2023-04-23T08:53:09.145Z,7.05
2023-04-23T08:55:41.091Z,7.15
2023-04-23T08:58:12.483Z,6.43
2023-04-23T09:00:43.558Z,7.00
2023-04-23T09:03:15.147Z,6.10
2023-04-23T09:05:46.605Z,5.95
2023-04-23T09:08:26.550Z,7.05
2023-04-23T09:11:00.036Z,7.43
2023-04-23T09:13:32.244Z,6.18
2023-04-23T09:16:04.069Z,7.28
2023-04-23T09:18:34.828Z,6.63
2023-04-23T09:21:07.499Z,6.10
2023-04-23T09:23:41.616Z,7.50
2023-04-23T09:26:12.889Z,6.78
2023-04-23T09:28:43.532Z,6.70
2023-04-23T09:31:14.406Z,6.22
2023-04-23T09:33:45.442Z,6.47
2023-04-23T09:36:19.088Z,7.22
2023-04-23T09:38:50.045Z,6.40
2023-04-23T09:41:30.614Z,7.05
2023-04-23T09:44:01.536Z,6.70
2023-04-23T09:46:45.765Z,6.82
2023-04-23T09:49:18.687Z,7.43
2023-04-23T09:51:52.082Z,7.20
2023-04-23T09:54:28.048Z,6.88
2023-04-23T09:57:04.324Z,6.90
2023-04-23T09:59:47.131Z,7.53
2023-04-23T10:02:20.194Z,7.32
2023-04-23T10:05:03.452Z,7.72
2023-04-23T10:07:37.986Z,8.43
2023-04-23T10:10:09.604Z,7.32
2023-04-23T10:12:54.386Z,7.40
2023-04-23T10:15:29.047Z,7.15
2023-04-23T10:18:01.524Z,7.82
2023-04-23T10:20:33.761Z,7.70
2023-04-23T10:23:04.943Z,7.50
2023-04-23T10:25:36.326Z,8.13
2023-04-23T10:28:10.238Z,7.53
2023-04-23T10:30:40.957Z,7.82
2023-04-23T10:33:22.525Z,7.78
2023-04-23T10:36:00.975Z,8.00
2023-04-23T10:38:32.560Z,7.75
2023-04-23T10:41:06.935Z,8.60
2023-04-23T10:43:38.783Z,8.75
2023-04-23T10:46:37.914Z,8.32
2023-04-23T10:49:16.507Z,9.98
2023-04-23T10:54:30.885Z,8.82
2023-04-23T10:57:09.575Z,8.55
2023-04-23T10:59:54.091Z,7.57
2023-04-23T11:02:27.732Z,7.53
2023-04-23T11:05:01.586Z,6.85
2023-04-23T11:07:36.733Z,6.68
2023-04-23T11:10:17.699Z,6.72
2023-04-23T11:12:48.736Z,7.00
2023-04-23T11:15:21.717Z,7.13
2023-04-23T11:17:55.597Z,7.25
2023-04-23T11:20:27.586Z,7.10
2023-04-23T11:22:59.405Z,7.10
2023-04-23T11:25:32.533Z,6.43
2023-04-23T11:28:03.975Z,7.43
2023-04-23T11:30:35.975Z,6.53
2023-04-23T11:33:08.023Z,6.30
2023-04-23T11:35:42.757Z,6.63
2023-04-23T11:38:13.558Z,6.88
2023-04-23T11:40:44.923Z,6.07
2023-04-23T11:43:23.572Z,6.30
2023-04-23T11:45:54.303Z,6.20
2023-04-23T11:48:26.707Z,6.20
2023-04-23T11:50:57.653Z,6.10
2023-04-23T11:53:30.337Z,6.53
2023-04-23T11:56:01.230Z,6.30
2023-04-23T11:58:31.807Z,6.88
2023-04-23T12:01:02.962Z,6.35
2023-04-23T12:03:33.714Z,6.35
2023-04-23T12:06:04.970Z,6.68
2023-04-23T12:08:39.118Z,6.95
2023-04-23T12:11:09.772Z,6.13
2023-04-23T12:13:44.896Z,6.80
2023-04-23T12:16:16.854Z,6.65
2023-04-23T12:18:48.114Z,6.93
2023-04-23T12:21:20.833Z,5.93
2023-04-23T12:23:55.092Z,7.07
2023-04-23T12:26:27.045Z,5.93
2023-04-23T12:29:01.320Z,7.13
2023-04-23T12:31:33.891Z,7.05
2023-04-23T12:34:12.012Z,6.50
2023-04-23T12:36:46.484Z,7.10
2023-04-23T12:39:33.511Z,6.20
2023-04-23T12:42:07.173Z,8.10
2023-04-23T12:44:39.734Z,6.10
2023-04-23T12:47:15.147Z,6.32
2023-04-23T12:49:46.888Z,5.78
2023-04-23T12:52:17.584Z,6.55
2023-04-23T12:54:49.127Z,6.95
2023-04-23T12:57:25.412Z,6.63
2023-04-23T12:59:57.083Z,6.15
2023-04-23T13:02:28.533Z,6.47
2023-04-23T13:05:03.092Z,5.88
2023-04-23T13:07:33.442Z,6.60
2023-04-23T13:10:03.645Z,7.20
2023-04-23T13:12:34.040Z,6.40
2023-04-23T13:15:04.348Z,5.45
2023-04-23T13:17:34.713Z,7.00
2023-04-23T13:20:07.564Z,6.03
2023-04-23T13:22:38.975Z,5.60
2023-04-23T13:25:10.869Z,5.68
2023-04-23T13:27:42.452Z,6.13
2023-04-23T13:30:13.692Z,6.60
2023-04-23T13:32:44.193Z,5.35
2023-04-23T13:35:16.585Z,5.75
2023-04-23T13:37:48.807Z,6.13
2023-04-23T13:40:19.550Z,6.20
2023-04-23T13:42:52.356Z,6.22
2023-04-23T13:45:22.694Z,6.18
2023-04-23T13:47:53.199Z,5.88
2023-04-23T13:50:23.498Z,7.50
2023-04-23T13:52:53.770Z,6.55
2023-04-23T13:55:25.325Z,5.28
2023-04-23T13:57:59.904Z,5.75
2023-04-23T14:00:32.280Z,5.53
2023-04-23T14:03:03.041Z,6.68
2023-04-23T14:05:35.506Z,5.30
2023-04-23T14:08:06.694Z,5.55
2023-04-23T14:10:37.908Z,4.65
2023-04-23T14:13:08.294Z,5.28
2023-04-23T14:15:39.158Z,4.63
2023-04-23T14:18:09.815Z,5.40
2023-04-23T14:20:40.876Z,4.50
2023-04-23T14:23:46.129Z,4.38
2023-04-23T14:29:39.482Z,4.38
2023-04-23T14:32:10.701Z,4.85
2023-04-23T14:34:41.328Z,4.95
2023-04-23T14:37:12.929Z,4.13
2023-04-23T14:39:44.884Z,4.68
2023-04-23T14:42:16.029Z,4.30
2023-04-23T14:44:46.929Z,4.53
2023-04-23T14:47:19.274Z,5.15
2023-04-23T14:49:50.843Z,4.82
2023-04-23T14:52:21.962Z,4.35
2023-04-23T14:54:52.969Z,5.20
2023-04-23T14:57:23.697Z,4.78
2023-04-23T14:59:54.365Z,5.00
2023-04-23T15:02:24.832Z,4.05
2023-04-23T15:04:55.504Z,4.68
2023-04-23T15:07:26.518Z,5.60
2023-04-23T15:09:57.121Z,4.93
2023-04-23T15:12:48.179Z,5.15
2023-04-23T15:15:44.288Z,4.53
2023-04-23T15:18:18.344Z,4.97
2023-04-23T15:20:49.139Z,5.15
2023-04-23T15:23:22.538Z,5.20
2023-04-23T15:25:53.794Z,5.10
2023-04-23T15:28:25.840Z,4.55
2023-04-23T15:30:56.127Z,5.50
2023-04-23T15:33:26.595Z,5.18
2023-04-23T15:35:59.831Z,4.72
2023-04-23T15:38:33.558Z,6.05
2023-04-23T15:41:05.595Z,5.15
2023-04-23T15:43:36.721Z,5.40
2023-04-23T15:46:06.992Z,5.30
2023-04-23T15:48:39.885Z,5.38
2023-04-23T15:51:11.893Z,6.20
2023-04-23T15:53:42.733Z,5.70
2023-04-23T15:56:13.603Z,5.70
2023-04-23T15:58:45.551Z,5.35
2023-04-23T16:01:16.334Z,6.07
2023-04-23T16:03:57.955Z,5.28
2023-04-23T16:06:37.117Z,5.22
2023-04-23T16:09:11.290Z,5.03
2023-04-23T16:11:41.809Z,5.25
2023-04-23T16:14:12.745Z,4.45
2023-04-23T16:16:43.060Z,4.65
2023-04-23T16:19:13.685Z,4.75
2023-04-23T16:21:44.365Z,4.90
2023-04-23T16:24:14.734Z,4.13
2023-04-23T16:26:45.768Z,4.80
2023-04-23T16:29:22.162Z,4.65
2023-04-23T16:31:55.235Z,4.22
2023-04-23T16:34:26.854Z,4.72
2023-04-23T16:36:58.509Z,4.50
2023-04-23T16:39:29.538Z,4.25
2023-04-23T16:42:00.854Z,4.68
2023-04-23T16:44:31.832Z,4.22
2023-04-23T16:47:02.663Z,4.60
2023-04-23T16:49:33.403Z,4.45
2023-04-23T16:52:06.846Z,4.05
2023-04-23T16:54:37.850Z,3.63
2023-04-23T16:57:09.117Z,4.03
2023-04-23T16:59:39.554Z,4.18
2023-04-23T17:02:09.929Z,4.20
2023-04-23T17:04:40.979Z,3.90
2023-04-23T17:07:12.863Z,3.72
2023-04-23T17:09:44.030Z,3.50
2023-04-23T17:12:14.646Z,3.90
2023-04-23T17:14:45.516Z,3.63
2023-04-23T17:17:15.695Z,3.63
2023-04-23T17:19:49.516Z,3.90
2023-04-23T17:22:22.300Z,3.22
2023-04-23T17:24:52.980Z,3.50
2023-04-23T17:27:24.881Z,4.10
2023-04-23T17:29:55.833Z,3.45
2023-04-23T17:32:26.482Z,3.92
2023-04-23T17:35:08.895Z,4.43
2023-04-23T17:37:40.719Z,3.40
2023-04-23T17:40:15.455Z,3.83
2023-04-23T17:42:45.770Z,3.95
2023-04-23T17:45:16.045Z,3.78
2023-04-23T17:47:47.100Z,3.47
2023-04-23T17:50:17.458Z,4.22
2023-04-23T17:52:47.722Z,4.03
2023-04-23T17:55:18.511Z,4.75
2023-04-23T17:57:50.005Z,3.63
2023-04-23T18:00:21.892Z,4.45
2023-04-23T18:02:52.413Z,4.57
2023-04-23T18:05:22.850Z,3.58
2023-04-23T18:07:53.068Z,4.20
2023-04-23T18:10:23.673Z,3.75
2023-04-23T18:12:54.109Z,4.35
2023-04-23T18:15:24.614Z,3.85
2023-04-23T18:17:58.838Z,4.30
2023-04-23T18:20:30.087Z,3.83
2023-04-23T18:23:01.126Z,4.10
2023-04-23T18:25:32.060Z,3.83
2023-04-23T18:28:02.490Z,4.30
2023-04-23T18:30:33.548Z,4.50
2023-04-23T18:33:44.568Z,4.05
2023-04-23T18:36:26.535Z,3.88
2023-04-23T18:38:56.912Z,3.80
2023-04-23T18:41:27.295Z,4.20
2023-04-23T18:43:57.774Z,3.88
2023-04-23T18:46:30.870Z,4.10
2023-04-23T18:49:47.354Z,4.20
2023-04-23T18:52:18.153Z,4.00
2023-04-23T18:54:48.931Z,5.05
2023-04-23T18:57:21.849Z,4.00
2023-04-23T18:59:52.539Z,4.32
2023-04-23T19:02:34.343Z,3.85
2023-04-23T19:05:05.813Z,4.47
2023-04-23T19:07:39.222Z,3.92
2023-04-23T19:10:10.665Z,3.92
2023-04-23T19:12:42.340Z,3.70
2023-04-23T19:15:18.603Z,4.00
2023-04-23T19:17:50.479Z,5.28
2023-04-23T19:20:21.498Z,4.30
2023-04-23T19:22:52.421Z,4.32
2023-04-23T19:25:24.053Z,4.32
2023-04-23T19:27:54.278Z,4.93
2023-04-23T19:30:24.606Z,3.92
2023-04-23T19:32:55.083Z,3.55
2023-04-23T19:35:25.924Z,4.28
2023-04-23T19:37:56.309Z,3.78
2023-04-23T19:40:26.481Z,3.38
2023-04-23T19:42:57.363Z,3.88
2023-04-23T19:45:28.542Z,3.40
2023-04-23T19:48:00.542Z,3.35
2023-04-23T19:50:31.390Z,4.20
2023-04-23T19:53:01.875Z,3.72
2023-04-23T19:55:33.321Z,4.05
2023-04-23T19:58:07.966Z,3.67
2023-04-23T20:00:41.933Z,3.67
2023-04-23T20:03:13.061Z,4.95
2023-04-23T20:05:46.303Z,3.90
2023-04-23T20:08:17.469Z,3.80
2023-04-23T20:10:48.207Z,3.75
2023-04-23T20:13:19.639Z,4.72
2023-04-23T20:15:50.867Z,4.10
2023-04-23T20:18:24.429Z,4.32
2023-04-23T20:20:56.783Z,3.83
2023-04-23T20:23:29.068Z,4.78
2023-04-23T20:25:59.782Z,3.88
2023-04-23T20:28:30.338Z,4.03
2023-04-23T20:31:00.608Z,3.80
2023-04-23T20:33:31.051Z,4.07
2023-04-23T20:36:03.291Z,3.85
2023-04-23T20:38:35.029Z,3.83
2023-04-23T20:41:07.118Z,3.35
2023-04-23T20:43:41.570Z,4.03
2023-04-23T20:46:12.627Z,3.70
2023-04-23T20:48:45.046Z,3.35
2023-04-23T20:51:18.474Z,3.70
2023-04-23T20:53:50.367Z,3.85
2023-04-23T20:56:21.038Z,3.67
2023-04-23T20:58:51.571Z,3.97
2023-04-23T21:01:21.949Z,3.75
2023-04-23T21:03:54.200Z,4.18
2023-04-23T21:06:25.514Z,4.30
2023-04-23T21:08:57.490Z,4.07
2023-04-23T21:11:29.912Z,3.70
2023-04-23T21:14:01.275Z,4.07
2023-04-23T21:16:31.673Z,3.53
2023-04-23T21:19:02.231Z,3.75
2023-04-23T21:21:34.879Z,4.32
2023-04-23T21:24:05.584Z,3.88
2023-04-23T21:26:35.887Z,3.60
2023-04-23T21:29:07.088Z,4.70
2023-04-23T21:31:47.314Z,4.15
2023-04-23T21:34:19.358Z,4.10
2023-04-23T21:36:49.599Z,3.97
2023-04-23T21:39:20.054Z,4.25
2023-04-23T21:41:51.071Z,4.60
2023-04-23T21:44:23.719Z,5.07
2023-04-23T21:46:54.440Z,4.07
2023-04-23T21:49:25.228Z,3.90
2023-04-23T21:51:56.702Z,3.95
2023-04-23T21:54:27.748Z,5.30
2023-04-23T21:56:58.587Z,4.40
2023-04-23T21:59:30.493Z,4.75
2023-04-23T22:02:01.134Z,4.32
2023-04-23T22:04:32.822Z,4.38
2023-04-23T22:07:07.592Z,4.85
2023-04-23T22:09:38.706Z,4.40
2023-04-23T22:12:11.671Z,4.57
2023-04-23T22:14:43.748Z,4.60
2023-04-23T22:17:14.571Z,4.57
2023-04-23T22:19:45.628Z,4.43
2023-04-23T22:22:16.298Z,3.60
2023-04-23T22:24:47.229Z,3.80
2023-04-23T22:27:17.947Z,4.80
2023-04-23T22:29:48.796Z,4.13
2023-04-23T22:32:21.132Z,3.92
2023-04-23T22:34:52.338Z,3.00
2023-04-23T22:37:23.591Z,3.10
2023-04-23T22:39:55.906Z,3.13
2023-04-23T22:42:26.754Z,2.75
2023-04-23T22:44:57.785Z,3.70
2023-04-23T22:47:31.307Z,2.78
2023-04-23T22:50:02.096Z,2.75
2023-04-23T22:52:33.843Z,2.50
2023-04-23T22:55:04.954Z,2.42
2023-04-23T22:57:35.725Z,3.30
2023-04-23T23:00:09.715Z,2.30
2023-04-23T23:02:41.902Z,3.00
2023-04-23T23:05:13.175Z,2.65
2023-04-23T23:07:44.111Z,2.58
2023-04-23T23:10:17.724Z,3.08
2023-04-23T23:12:48.751Z,2.40
2023-04-23T23:15:19.487Z,3.08
2023-04-23T23:17:51.265Z,2.45
2023-04-23T23:20:22.248Z,2.55
2023-04-23T23:22:53.477Z,2.33
2023-04-23T23:25:25.173Z,2.03
2023-04-23T23:27:56.848Z,2.75
2023-04-23T23:30:28.344Z,2.60
2023-04-23T23:32:59.615Z,2.80
2023-04-23T23:35:32.337Z,4.43
2023-04-23T23:38:03.261Z,2.50
2023-04-23T23:40:34.855Z,2.20
2023-04-23T23:43:05.866Z,2.50
2023-04-23T23:45:37.376Z,1.85
2023-04-23T23:48:08.525Z,2.30
2023-04-23T23:50:43.020Z,1.95
2023-04-23T23:53:14.209Z,2.25
2023-04-23T23:55:46.076Z,1.70
2023-04-23T23:58:17.036Z,1.90
